Time;durP1;ratioP1;P1;durP2;ratioP2;P2;SDS_P1;SDS_P2;PMS_P1;PMS_P2;Temp;Humidity;BMP_temperature;BMP_pressure;BME280_temperature;BME280_humidity;BME280_pressure;Samples;Min_cycle;Max_cycle;Signal;HPM_P1;HPM_P2
2020/12/10 00:01:20;;;;;;;72.10;32.30;;;5.90;99.90;;;;;;5080629;28;20255;-65
2020/12/10 00:03:47;;;;;;;66.78;31.63;;;5.80;99.90;;;;;;5086746;28;20663;-65
2020/12/10 00:06:13;;;;;;;69.20;33.65;;;5.80;99.90;;;;;;5082325;28;20201;-64
2020/12/10 00:08:40;;;;;;;69.38;32.03;;;5.70;99.90;;;;;;5085783;28;20206;-63
2020/12/10 00:11:08;;;;;;;69.18;31.88;;;5.80;99.90;;;;;;5084124;28;20641;-64
2020/12/10 00:13:35;;;;;;;69.47;32.13;;;5.80;99.90;;;;;;5083110;28;20209;-64
2020/12/10 00:16:02;;;;;;;65.40;31.48;;;5.80;99.90;;;;;;5081274;28;20652;-64
2020/12/10 00:18:29;;;;;;;62.80;30.48;;;5.80;99.90;;;;;;5084955;28;20259;-65
2020/12/10 00:20:55;;;;;;;63.67;30.70;;;5.90;99.90;;;;;;5084520;28;20728;-64
2020/12/10 00:23:22;;;;;;;64.65;29.83;;;5.80;99.90;;;;;;5084026;28;20198;-65
2020/12/10 00:25:48;;;;;;;58.67;29.50;;;5.90;99.90;;;;;;5082537;28;20206;-65
2020/12/10 00:28:15;;;;;;;65.22;30.33;;;5.90;99.90;;;;;;5085448;28;20647;-65
2020/12/10 00:30:41;;;;;;;61.08;29.23;;;5.80;99.90;;;;;;5081262;28;20199;-64
2020/12/10 00:33:09;;;;;;;60.33;29.83;;;5.90;99.90;;;;;;5084341;28;20270;-65
2020/12/10 00:35:35;;;;;;;63.78;30.83;;;5.80;99.90;;;;;;5081597;28;20667;-64
2020/12/10 00:38:02;;;;;;;58.97;30.73;;;5.80;99.90;;;;;;5082967;28;20624;-63
2020/12/10 00:40:28;;;;;;;65.50;31.10;;;5.80;99.90;;;;;;5082726;28;20229;-64
2020/12/10 00:42:55;;;;;;;64.65;30.52;;;5.80;99.90;;;;;;5083659;28;20209;-64
2020/12/10 00:45:21;;;;;;;61.20;30.33;;;5.70;99.90;;;;;;5085964;28;20217;-63
2020/12/10 00:47:47;;;;;;;62.08;31.10;;;5.80;99.90;;;;;;5083673;28;20206;-64
2020/12/10 00:50:15;;;;;;;62.08;30.25;;;5.80;99.90;;;;;;5081661;28;20271;-66
2020/12/10 00:52:41;;;;;;;60.10;29.58;;;5.80;99.90;;;;;;5080593;28;20288;-63
2020/12/10 00:55:13;;;;;;;63.97;29.13;;;5.80;99.90;;;;;;5084037;28;20200;-64
2020/12/10 00:57:42;;;;;;;63.38;29.13;;;5.80;99.90;;;;;;5081565;28;20198;-63
2020/12/10 01:00:09;;;;;;;61.45;29.73;;;5.80;99.90;;;;;;5083264;28;20210;-65
2020/12/10 01:02:36;;;;;;;58.40;28.92;;;5.80;99.90;;;;;;5083638;28;20197;-65
2020/12/10 01:05:02;;;;;;;58.97;29.70;;;5.80;99.90;;;;;;5083078;28;20207;-65
2020/12/10 01:07:29;;;;;;;58.88;30.13;;;5.90;99.90;;;;;;5083411;28;20326;-64
2020/12/10 01:09:56;;;;;;;57.20;28.77;;;5.90;99.90;;;;;;5084081;28;20205;-63
2020/12/10 01:12:22;;;;;;;61.03;29.42;;;5.90;99.90;;;;;;5084321;28;20231;-64
2020/12/10 01:14:48;;;;;;;54.53;28.02;;;5.90;99.90;;;;;;5083594;28;20230;-64
2020/12/10 01:17:15;;;;;;;58.03;28.75;;;5.80;99.90;;;;;;5084840;28;20206;-64
2020/12/10 01:19:42;;;;;;;57.33;29.00;;;5.80;99.90;;;;;;5085049;28;20267;-63
2020/12/10 01:22:08;;;;;;;50.15;27.50;;;5.80;99.90;;;;;;5082941;28;20284;-65
2020/12/10 01:24:35;;;;;;;56.60;27.55;;;5.80;99.90;;;;;;5085381;28;20622;-64
2020/12/10 01:27:01;;;;;;;53.80;27.15;;;5.80;99.90;;;;;;5081875;28;20208;-64
2020/12/10 01:29:28;;;;;;;57.75;29.20;;;5.80;99.90;;;;;;5089518;28;20249;-65
2020/12/10 01:31:54;;;;;;;52.92;28.48;;;5.80;99.90;;;;;;5085715;28;20210;-65
2020/12/10 01:34:20;;;;;;;55.33;28.42;;;5.70;99.90;;;;;;5089033;28;20206;-64
2020/12/10 01:36:46;;;;;;;50.10;27.63;;;5.70;99.90;;;;;;5086400;28;20254;-65
2020/12/10 01:39:13;;;;;;;53.08;27.95;;;5.70;99.90;;;;;;5087399;28;21342;-66
2020/12/10 01:41:40;;;;;;;57.13;27.20;;;5.70;99.90;;;;;;5087082;28;20875;-63
2020/12/10 01:44:09;;;;;;;54.03;27.40;;;5.70;99.90;;;;;;5086561;28;20201;-64
2020/12/10 01:46:36;;;;;;;53.13;28.33;;;5.70;99.90;;;;;;5087033;28;21985;-65
2020/12/10 01:49:04;;;;;;;54.63;27.83;;;5.70;99.90;;;;;;5085142;28;20744;-64
2020/12/10 01:51:31;;;;;;;57.97;28.17;;;5.60;99.90;;;;;;5084403;28;20194;-64
2020/12/10 01:53:57;;;;;;;52.28;27.58;;;5.70;99.90;;;;;;5087159;28;20593;-64
2020/12/10 01:56:24;;;;;;;51.13;27.08;;;5.70;99.90;;;;;;5083470;28;20629;-63
2020/12/10 01:58:51;;;;;;;56.53;29.02;;;5.70;99.90;;;;;;5088666;28;20262;-64
2020/12/10 02:01:17;;;;;;;62.28;27.58;;;5.70;99.90;;;;;;5085230;28;20603;-65
2020/12/10 02:03:44;;;;;;;53.70;26.67;;;5.70;99.90;;;;;;5088066;28;20278;-64
2020/12/10 02:06:10;;;;;;;58.17;27.25;;;5.60;99.90;;;;;;5084441;28;20202;-63
2020/12/10 02:08:40;;;;;;;54.58;26.80;;;5.70;99.90;;;;;;5087048;28;20297;-63
2020/12/10 02:11:07;;;;;;;62.03;28.77;;;5.70;99.90;;;;;;5084884;28;20289;-64
2020/12/10 02:13:34;;;;;;;55.63;26.88;;;5.60;99.90;;;;;;5083943;28;20723;-65
2020/12/10 02:16:01;;;;;;;58.85;29.45;;;5.60;99.90;;;;;;5087045;28;20217;-64
2020/12/10 02:18:27;;;;;;;56.35;27.83;;;5.60;99.90;;;;;;5087145;28;20301;-64
2020/12/10 02:20:54;;;;;;;61.35;25.67;;;5.60;99.90;;;;;;5085892;28;20255;-64
2020/12/10 02:23:21;;;;;;;55.15;26.67;;;5.60;99.90;;;;;;5086971;28;20201;-65
2020/12/10 02:25:47;;;;;;;58.33;27.25;;;5.60;99.90;;;;;;5084676;28;20221;-64
2020/12/10 02:28:15;;;;;;;50.67;26.67;;;5.60;99.90;;;;;;5087171;28;20229;-63
2020/12/10 02:30:43;;;;;;;51.10;26.77;;;5.60;99.90;;;;;;5084013;28;20214;-64
2020/12/10 02:33:12;;;;;;;52.60;26.23;;;5.60;99.90;;;;;;5087074;28;20287;-63
2020/12/10 02:35:41;;;;;;;52.78;25.77;;;5.60;99.90;;;;;;5083553;28;20655;-63
2020/12/10 02:38:09;;;;;;;51.15;25.23;;;5.60;99.90;;;;;;5084673;28;20258;-63
2020/12/10 02:40:39;;;;;;;48.97;25.88;;;5.60;99.90;;;;;;5085143;28;20584;-62
2020/12/10 02:43:06;;;;;;;53.08;26.20;;;5.60;99.90;;;;;;5087432;28;20549;-63
2020/12/10 02:45:32;;;;;;;49.40;24.88;;;5.60;99.90;;;;;;5087060;28;20223;-63
2020/12/10 02:47:59;;;;;;;48.78;24.73;;;5.70;99.90;;;;;;5086209;28;20208;-64
2020/12/10 02:50:25;;;;;;;46.80;24.67;;;5.60;99.90;;;;;;5084696;28;20252;-64
2020/12/10 02:52:51;;;;;;;49.53;25.77;;;5.70;99.90;;;;;;5082697;28;20225;-63
2020/12/10 02:55:18;;;;;;;47.92;24.60;;;5.70;99.90;;;;;;5087652;28;20206;-63
2020/12/10 02:57:45;;;;;;;48.80;24.85;;;5.70;99.90;;;;;;5084984;28;20708;-64
2020/12/10 03:00:11;;;;;;;44.63;24.77;;;5.60;99.90;;;;;;5087918;28;20283;-63
2020/12/10 03:02:38;;;;;;;46.10;24.95;;;5.60;99.90;;;;;;5085787;28;20218;-63
2020/12/10 03:05:06;;;;;;;44.13;23.65;;;5.70;99.90;;;;;;5087706;28;20234;-63
2020/12/10 03:07:32;;;;;;;48.85;24.52;;;5.70;99.90;;;;;;5085365;28;20198;-64
2020/12/10 03:09:58;;;;;;;42.95;23.60;;;5.60;99.90;;;;;;5085408;28;20310;-64
2020/12/10 03:12:24;;;;;;;44.70;24.67;;;5.60;99.90;;;;;;5086675;28;20267;-63
2020/12/10 03:14:52;;;;;;;43.05;23.33;;;5.60;99.90;;;;;;5085658;28;20214;-64
2020/12/10 03:17:18;;;;;;;39.83;22.00;;;5.60;99.90;;;;;;5084599;28;20220;-64
2020/12/10 03:19:44;;;;;;;36.40;21.17;;;5.60;99.90;;;;;;5084276;28;20258;-64
2020/12/10 03:22:14;;;;;;;39.50;23.33;;;5.60;99.90;;;;;;5084317;28;20218;-63
2020/12/10 03:24:41;;;;;;;37.33;21.83;;;5.60;99.90;;;;;;5084702;28;20255;-62
2020/12/10 03:27:08;;;;;;;44.13;22.20;;;5.50;99.90;;;;;;5082805;28;20202;-63
2020/12/10 03:29:34;;;;;;;35.17;21.40;;;5.50;99.90;;;;;;5087000;28;20237;-63
2020/12/10 03:32:02;;;;;;;35.10;20.42;;;5.40;99.90;;;;;;5082687;28;20290;-64
2020/12/10 03:34:28;;;;;;;37.35;21.17;;;5.40;99.90;;;;;;5085660;28;20564;-64
2020/12/10 03:36:56;;;;;;;34.25;19.75;;;5.40;99.90;;;;;;5084021;28;20224;-65
2020/12/10 03:39:24;;;;;;;37.85;20.67;;;5.40;99.90;;;;;;5083993;28;20197;-63
2020/12/10 03:41:51;;;;;;;35.28;21.50;;;5.40;99.90;;;;;;5083356;28;20230;-64
2020/12/10 03:44:18;;;;;;;36.95;20.05;;;5.30;99.90;;;;;;5082817;28;20292;-64
2020/12/10 03:46:45;;;;;;;36.22;20.40;;;5.30;99.90;;;;;;5082505;28;20212;-63
2020/12/10 03:49:12;;;;;;;35.50;20.13;;;5.30;99.90;;;;;;5084555;28;20206;-64
2020/12/10 03:51:39;;;;;;;34.08;19.75;;;5.30;99.90;;;;;;5082049;28;20255;-64
2020/12/10 03:54:06;;;;;;;34.80;19.08;;;5.20;99.90;;;;;;5085236;28;20193;-64
2020/12/10 03:56:32;;;;;;;32.88;18.75;;;5.20;99.90;;;;;;5083665;28;20198;-65
2020/12/10 03:58:59;;;;;;;32.35;18.80;;;5.20;99.90;;;;;;5085609;28;20259;-62
2020/12/10 04:01:26;;;;;;;30.95;18.33;;;5.20;99.90;;;;;;5081750;28;20213;-68
2020/12/10 04:03:52;;;;;;;34.17;18.48;;;5.20;99.90;;;;;;5086133;28;20205;-63
2020/12/10 04:06:19;;;;;;;32.92;17.92;;;5.10;99.90;;;;;;5082608;28;20198;-63
2020/12/10 04:08:46;;;;;;;30.70;17.20;;;5.10;99.90;;;;;;5084540;28;20236;-65
2020/12/10 04:11:12;;;;;;;33.08;18.50;;;5.10;99.90;;;;;;5078910;28;20307;-63
2020/12/10 04:13:38;;;;;;;34.28;18.38;;;5.10;99.90;;;;;;5085361;28;20267;-66
2020/12/10 04:16:05;;;;;;;31.48;18.05;;;5.10;99.90;;;;;;5084532;28;20206;-63
2020/12/10 04:18:32;;;;;;;33.70;18.60;;;5.10;99.90;;;;;;5083615;28;20275;-64
2020/12/10 04:20:59;;;;;;;31.00;18.13;;;5.10;99.90;;;;;;5083253;28;20695;-64
2020/12/10 04:23:26;;;;;;;34.63;18.48;;;5.10;99.90;;;;;;5083406;28;20251;-65
2020/12/10 04:25:53;;;;;;;30.98;17.95;;;5.10;99.90;;;;;;5081221;28;20205;-64
2020/12/10 04:28:19;;;;;;;33.20;19.63;;;5.00;99.90;;;;;;5083846;28;20229;-65
2020/12/10 04:30:45;;;;;;;35.97;18.88;;;5.00;99.90;;;;;;5083590;28;20228;-64
2020/12/10 04:33:12;;;;;;;32.72;18.05;;;5.00;99.90;;;;;;5085642;28;20271;-67
2020/12/10 04:35:38;;;;;;;36.00;18.35;;;5.00;99.90;;;;;;5082911;28;20205;-64
2020/12/10 04:38:05;;;;;;;31.55;17.88;;;5.00;99.90;;;;;;5083338;28;20225;-65
2020/12/10 04:40:32;;;;;;;34.70;17.98;;;4.90;99.90;;;;;;5084012;28;20659;-64
2020/12/10 04:42:59;;;;;;;34.83;19.20;;;5.00;99.90;;;;;;5083095;28;20346;-64
2020/12/10 04:45:26;;;;;;;31.08;18.30;;;5.00;99.90;;;;;;5083792;28;20212;-64
2020/12/10 04:47:52;;;;;;;33.45;18.77;;;5.00;99.90;;;;;;5082528;28;20625;-65
2020/12/10 04:50:23;;;;;;;35.22;18.65;;;5.00;99.90;;;;;;5083662;28;20195;-62
2020/12/10 04:52:50;;;;;;;32.83;17.98;;;5.00;99.90;;;;;;5083057;28;22058;-63
2020/12/10 04:55:17;;;;;;;30.15;16.48;;;5.00;99.90;;;;;;5082897;28;20229;-64
2020/12/10 04:57:45;;;;;;;32.00;16.75;;;5.00;99.90;;;;;;5082819;28;20209;-64
2020/12/10 05:00:14;;;;;;;33.85;16.60;;;5.00;99.90;;;;;;5083805;28;20197;-64
2020/12/10 05:02:44;;;;;;;27.17;15.73;;;4.90;99.90;;;;;;5086556;28;20216;-65
2020/12/10 05:05:24;;;;;;;31.95;16.08;;;5.00;99.90;;;;;;5087395;28;20202;-65
2020/12/10 05:07:50;;;;;;;28.45;16.02;;;4.90;99.90;;;;;;5088596;28;20205;-64
2020/12/10 05:10:17;;;;;;;31.85;17.33;;;4.90;99.90;;;;;;5086854;28;20209;-64
2020/12/10 05:12:45;;;;;;;30.92;16.95;;;4.90;99.90;;;;;;5086628;28;20212;-65
2020/12/10 05:15:11;;;;;;;35.08;17.45;;;4.90;99.90;;;;;;5088984;28;20728;-66
2020/12/10 05:17:38;;;;;;;29.77;17.30;;;4.90;99.90;;;;;;5085848;28;20198;-65
2020/12/10 05:20:06;;;;;;;29.17;16.98;;;4.90;99.90;;;;;;5086259;28;20214;-65
2020/12/10 05:22:33;;;;;;;30.58;17.25;;;4.90;99.90;;;;;;5087246;28;20271;-65
2020/12/10 05:25:01;;;;;;;31.45;17.83;;;4.90;99.90;;;;;;5087701;28;20201;-65
2020/12/10 05:27:28;;;;;;;34.65;18.52;;;4.90;99.90;;;;;;5085341;28;20205;-64
2020/12/10 05:29:56;;;;;;;34.78;18.15;;;4.90;99.90;;;;;;5086434;28;20659;-65
2020/12/10 05:32:41;;;;;;;34.53;18.58;;;4.80;99.90;;;;;;5086984;28;20253;-65
2020/12/10 05:35:19;;;;;;;31.52;17.98;;;4.80;99.90;;;;;;5085107;28;20245;-64
2020/12/10 05:37:46;;;;;;;32.60;18.42;;;4.80;99.90;;;;;;5084322;28;20221;-64
2020/12/10 05:40:13;;;;;;;35.92;20.17;;;4.80;99.90;;;;;;5088109;28;20206;-65
2020/12/10 05:42:41;;;;;;;31.25;17.92;;;4.80;99.90;;;;;;5087105;28;20732;-64
2020/12/10 05:45:13;;;;;;;35.58;18.17;;;4.80;99.90;;;;;;5087001;28;20202;-66
2020/12/10 05:47:42;;;;;;;34.55;18.50;;;4.70;99.90;;;;;;5087068;28;20208;-64
2020/12/10 05:50:11;;;;;;;33.30;18.55;;;4.70;99.90;;;;;;5084152;28;20961;-64
2020/12/10 05:52:43;;;;;;;34.65;18.25;;;4.70;99.90;;;;;;5084976;28;20654;-63
2020/12/10 05:55:09;;;;;;;31.77;17.92;;;4.70;99.90;;;;;;5086456;28;20290;-65
2020/12/10 05:57:36;;;;;;;33.92;18.30;;;4.70;99.90;;;;;;5085615;28;21052;-63
2020/12/10 06:00:04;;;;;;;34.75;17.63;;;4.70;99.90;;;;;;5088107;28;20201;-65
2020/12/10 06:02:35;;;;;;;32.53;17.88;;;4.70;99.90;;;;;;5084378;28;20554;-64
2020/12/10 06:05:01;;;;;;;31.33;17.55;;;4.70;99.90;;;;;;5087540;28;20202;-64
2020/12/10 06:07:28;;;;;;;33.92;18.23;;;4.70;99.90;;;;;;5084475;28;21467;-64
2020/12/10 06:09:55;;;;;;;30.58;17.08;;;4.70;99.90;;;;;;5087678;28;20224;-63
2020/12/10 06:12:24;;;;;;;30.35;17.08;;;4.70;99.90;;;;;;5083109;28;20221;-65
2020/12/10 06:14:52;;;;;;;31.48;17.42;;;4.70;99.90;;;;;;5087700;28;20202;-65
2020/12/10 06:17:18;;;;;;;31.65;17.42;;;4.70;99.90;;;;;;5084039;28;20202;-65
2020/12/10 06:19:46;;;;;;;32.17;17.88;;;4.60;99.90;;;;;;5087186;28;20213;-64
2020/12/10 06:22:29;;;;;;;35.15;18.38;;;4.50;99.90;;;;;;5085459;28;20259;-64
2020/12/10 06:24:56;;;;;;;33.85;18.00;;;4.50;99.90;;;;;;5085110;28;20227;-63
2020/12/10 06:27:24;;;;;;;30.85;17.73;;;4.50;99.90;;;;;;5085325;28;20201;-63
2020/12/10 06:29:51;;;;;;;32.47;17.45;;;4.50;99.90;;;;;;5086025;28;20229;-63
2020/12/10 06:32:18;;;;;;;31.90;17.60;;;4.40;99.90;;;;;;5086153;28;20567;-62
2020/12/10 06:34:48;;;;;;;32.63;17.77;;;4.40;99.90;;;;;;5085740;28;20221;-64
2020/12/10 06:37:19;;;;;;;31.00;17.20;;;4.30;99.90;;;;;;5086023;28;20921;-65
2020/12/10 06:39:46;;;;;;;33.30;16.45;;;4.30;99.90;;;;;;5083948;28;20268;-64
2020/12/10 06:42:13;;;;;;;30.17;17.23;;;4.30;99.90;;;;;;5084905;28;20310;-63
2020/12/10 06:44:39;;;;;;;30.52;16.25;;;4.30;99.90;;;;;;5084541;28;20202;-63
2020/12/10 06:47:06;;;;;;;30.60;16.75;;;4.20;99.90;;;;;;5084864;28;20608;-64
2020/12/10 06:49:34;;;;;;;30.83;17.20;;;4.20;99.90;;;;;;5084364;28;20608;-64
2020/12/10 06:52:11;;;;;;;30.13;17.30;;;4.20;99.90;;;;;;5083454;28;20257;-65
2020/12/10 06:55:10;;;;;;;30.40;16.83;;;4.10;99.90;;;;;;5086000;28;20678;-65
2020/12/10 06:57:59;;;;;;;32.28;16.33;;;4.10;99.90;;;;;;5076493;28;20213;-64
2020/12/10 07:00:45;;;;;;;31.55;15.65;;;4.00;99.90;;;;;;5089626;28;20198;-64
2020/12/10 07:03:16;;;;;;;28.90;15.95;;;4.00;99.90;;;;;;5089906;28;20198;-64
2020/12/10 07:05:42;;;;;;;33.38;16.60;;;4.00;99.90;;;;;;5090249;28;20198;-64
2020/12/10 07:08:11;;;;;;;29.02;16.48;;;4.00;99.90;;;;;;5089435;28;20567;-63
2020/12/10 07:10:39;;;;;;;33.55;17.63;;;4.00;99.90;;;;;;5089652;28;20209;-63
2020/12/10 07:13:06;;;;;;;28.73;15.80;;;3.90;99.90;;;;;;5089557;28;20301;-64
2020/12/10 07:15:32;;;;;;;32.35;16.70;;;3.80;99.90;;;;;;5089157;28;20224;-63
2020/12/10 07:18:01;;;;;;;28.85;16.27;;;3.80;99.90;;;;;;5089521;28;20207;-63
2020/12/10 07:20:29;;;;;;;29.23;16.20;;;3.80;99.90;;;;;;5089961;28;20293;-64
2020/12/10 07:22:56;;;;;;;29.65;16.05;;;3.70;99.90;;;;;;5089732;28;20209;-65
2020/12/10 07:25:23;;;;;;;28.48;15.60;;;3.70;99.90;;;;;;5089539;28;20212;-65
2020/12/10 07:27:50;;;;;;;30.38;16.05;;;3.70;99.90;;;;;;5088124;28;20235;-63
2020/12/10 07:30:18;;;;;;;35.13;17.45;;;3.70;99.90;;;;;;5088815;28;20209;-64
2020/12/10 07:32:45;;;;;;;31.35;16.52;;;3.70;99.90;;;;;;5088173;28;20753;-64
2020/12/10 07:35:13;;;;;;;31.88;16.25;;;3.70;99.90;;;;;;5087270;28;20208;-63
2020/12/10 07:37:40;;;;;;;30.90;16.60;;;3.70;99.90;;;;;;5089263;28;20255;-64
2020/12/10 07:40:10;;;;;;;29.65;16.00;;;3.70;99.90;;;;;;5089590;28;20205;-64
2020/12/10 07:42:38;;;;;;;28.80;15.50;;;3.70;99.90;;;;;;5088806;28;20201;-63
2020/12/10 07:45:11;;;;;;;30.98;16.20;;;3.70;99.90;;;;;;5089490;28;20205;-67
2020/12/10 07:47:38;;;;;;;30.08;15.85;;;3.70;99.90;;;;;;5088673;28;20574;-62
2020/12/10 07:50:20;;;;;;;30.63;16.63;;;3.70;99.90;;;;;;5088864;28;20206;-64
2020/12/10 07:52:48;;;;;;;28.92;15.90;;;3.70;99.90;;;;;;5085902;28;20224;-63
2020/12/10 07:55:17;;;;;;;28.10;16.23;;;3.70;99.90;;;;;;5089407;28;20566;-64
2020/12/10 07:57:56;;;;;;;27.60;14.98;;;3.70;99.90;;;;;;5089066;28;20201;-63
2020/12/10 08:00:24;;;;;;;34.13;15.57;;;3.70;99.90;;;;;;5089157;28;20263;-64
2020/12/10 08:03:02;;;;;;;29.35;16.60;;;3.70;99.90;;;;;;5088872;28;20301;-65
2020/12/10 08:05:28;;;;;;;31.05;16.42;;;3.80;99.90;;;;;;5087978;28;20201;-64
2020/12/10 08:07:55;;;;;;;31.80;15.55;;;3.80;99.90;;;;;;5088348;28;20263;-70
2020/12/10 08:10:23;;;;;;;33.55;16.50;;;3.80;99.90;;;;;;5080271;28;20448;-69
2020/12/10 08:13:11;;;;;;;32.60;19.00;;;3.90;99.90;;;;;;5081092;28;20803;-66
2020/12/10 08:15:38;;;;;;;30.08;17.38;;;4.00;99.90;;;;;;5084440;28;20671;-65
2020/12/10 08:18:05;;;;;;;31.80;20.55;;;4.00;99.90;;;;;;5083584;28;20448;-67
2020/12/10 08:20:36;;;;;;;32.58;19.90;;;4.20;99.90;;;;;;5081482;28;20459;-66
2020/12/10 08:23:03;;;;;;;33.03;20.48;;;4.20;99.90;;;;;;5082489;28;20436;-69
2020/12/10 08:25:29;;;;;;;30.77;18.45;;;4.40;99.90;;;;;;5082358;28;20505;-73
2020/12/10 08:27:56;;;;;;;27.98;16.77;;;4.40;99.90;;;;;;5081374;28;20735;-66
2020/12/10 08:30:24;;;;;;;27.60;15.35;;;4.20;99.90;;;;;;5082498;28;20617;-68
2020/12/10 08:32:56;;;;;;;31.40;17.73;;;4.20;99.90;;;;;;5083206;28;20452;-69
2020/12/10 08:35:22;;;;;;;29.17;18.73;;;4.20;99.90;;;;;;5082974;28;20494;-72
2020/12/10 08:37:49;;;;;;;27.15;15.70;;;4.50;99.90;;;;;;5083780;28;20206;-68
2020/12/10 08:40:24;;;;;;;28.45;17.30;;;4.30;99.90;;;;;;5083996;28;20768;-66
2020/12/10 08:42:50;;;;;;;26.92;15.40;;;4.30;99.90;;;;;;5083222;28;20189;-67
2020/12/10 08:45:30;;;;;;;30.77;18.90;;;4.20;99.90;;;;;;5084178;28;20461;-71
2020/12/10 08:47:59;;;;;;;31.73;15.82;;;4.40;99.90;;;;;;5084284;28;21346;-64
2020/12/10 08:50:26;;;;;;;25.58;14.88;;;4.30;99.90;;;;;;5082676;28;20637;-66
2020/12/10 08:53:08;;;;;;;26.27;15.15;;;4.20;99.90;;;;;;5083036;28;20297;-64
2020/12/10 08:55:40;;;;;;;26.77;14.13;;;4.20;99.90;;;;;;5081209;28;20209;-67
2020/12/10 08:58:07;;;;;;;28.88;14.40;;;4.20;99.90;;;;;;5083384;28;20198;-67
2020/12/10 09:00:37;;;;;;;27.35;14.77;;;4.20;99.90;;;;;;5083846;28;20587;-67
2020/12/10 09:03:04;;;;;;;26.08;14.55;;;4.20;99.90;;;;;;5083670;28;20193;-65
2020/12/10 09:05:30;;;;;;;30.77;15.38;;;4.20;99.90;;;;;;5085486;28;21251;-66
2020/12/10 09:07:56;;;;;;;27.02;14.38;;;4.20;99.90;;;;;;5082746;28;20205;-66
2020/12/10 09:10:26;;;;;;;28.85;15.27;;;4.30;99.90;;;;;;5085099;28;20259;-63
2020/12/10 09:12:53;;;;;;;27.55;14.63;;;4.30;99.90;;;;;;5082615;28;20217;-62
2020/12/10 09:15:19;;;;;;;28.75;14.23;;;4.30;99.90;;;;;;5083454;28;20205;-62
2020/12/10 09:17:46;;;;;;;25.83;14.68;;;4.30;99.90;;;;;;5083048;28;20214;-63
2020/12/10 09:20:12;;;;;;;28.88;14.38;;;4.30;99.90;;;;;;5083910;28;20282;-65
2020/12/10 09:22:39;;;;;;;26.35;14.75;;;4.30;99.90;;;;;;5083559;28;20201;-66
2020/12/10 09:25:05;;;;;;;27.88;13.82;;;4.30;99.90;;;;;;5083381;28;20679;-64
2020/12/10 09:27:33;;;;;;;25.45;14.25;;;4.30;99.90;;;;;;5084960;28;20201;-62
2020/12/10 09:29:59;;;;;;;27.52;14.15;;;4.30;99.90;;;;;;5082043;28;20230;-64
2020/12/10 09:32:25;;;;;;;30.30;15.23;;;4.30;99.90;;;;;;5082920;28;20208;-63
2020/12/10 09:34:52;;;;;;;26.02;15.40;;;4.40;99.90;;;;;;5084568;28;20340;-63
2020/12/10 09:37:19;;;;;;;27.90;14.57;;;4.40;99.90;;;;;;5083279;28;20293;-64
2020/12/10 09:39:46;;;;;;;25.92;14.82;;;4.40;99.90;;;;;;5085775;28;20233;-61
2020/12/10 09:42:12;;;;;;;26.20;13.93;;;4.40;99.90;;;;;;5081967;28;20213;-64
2020/12/10 09:44:38;;;;;;;27.13;14.52;;;4.50;99.90;;;;;;5084758;28;20202;-68
2020/12/10 09:47:07;;;;;;;22.83;13.98;;;4.50;99.90;;;;;;5080102;28;20205;-60
2020/12/10 09:49:33;;;;;;;26.45;13.95;;;4.50;99.90;;;;;;5087848;28;20209;-63
2020/12/10 09:52:02;;;;;;;26.88;14.05;;;4.50;99.90;;;;;;5082798;28;20213;-65
2020/12/10 09:54:38;;;;;;;27.00;13.80;;;4.50;99.90;;;;;;5087439;28;20225;-61
2020/12/10 09:57:09;;;;;;;27.15;14.77;;;4.50;99.90;;;;;;5084808;28;20194;-63
2020/12/10 09:59:38;;;;;;;24.67;14.23;;;4.50;99.90;;;;;;5086252;28;20244;-64
2020/12/10 10:02:04;;;;;;;29.85;14.18;;;4.50;99.90;;;;;;5084872;28;22150;-67
2020/12/10 10:04:31;;;;;;;23.38;13.80;;;4.50;99.90;;;;;;5086282;28;20226;-72
2020/12/10 10:06:57;;;;;;;28.25;13.95;;;4.50;99.90;;;;;;5084663;28;20243;-69
2020/12/10 10:09:26;;;;;;;23.05;13.90;;;4.60;99.90;;;;;;5084885;28;20255;-61
2020/12/10 10:11:53;;;;;;;23.35;13.60;;;4.60;99.90;;;;;;5086254;28;20221;-66
2020/12/10 10:14:19;;;;;;;24.33;13.65;;;4.70;99.90;;;;;;5087672;28;21022;-65
2020/12/10 10:16:45;;;;;;;24.67;13.90;;;4.70;99.90;;;;;;5083053;28;20210;-67
2020/12/10 10:19:12;;;;;;;26.20;14.25;;;4.70;99.90;;;;;;5087337;28;20202;-64
2020/12/10 10:21:38;;;;;;;24.10;13.45;;;4.70;99.90;;;;;;5085669;28;20206;-64
2020/12/10 10:24:04;;;;;;;25.52;13.07;;;4.80;99.90;;;;;;5088023;28;20210;-67
2020/12/10 10:26:31;;;;;;;23.95;13.32;;;4.90;99.90;;;;;;5084148;28;20271;-64
2020/12/10 10:28:59;;;;;;;25.85;13.55;;;5.00;99.90;;;;;;5087361;28;20334;-67
2020/12/10 10:31:26;;;;;;;22.48;12.35;;;5.00;99.80;;;;;;5083921;28;20217;-68
2020/12/10 10:33:52;;;;;;;24.00;12.85;;;5.00;99.70;;;;;;5084312;28;20221;-70
2020/12/10 10:36:22;;;;;;;23.45;13.50;;;5.00;99.80;;;;;;5087028;28;20201;-71
2020/12/10 10:38:48;;;;;;;23.88;13.45;;;5.00;99.70;;;;;;5083089;28;20282;-69
2020/12/10 10:41:15;;;;;;;22.98;13.93;;;5.10;99.80;;;;;;5084797;28;20303;-71
2020/12/10 10:43:42;;;;;;;22.60;12.88;;;5.20;99.70;;;;;;5084044;28;20610;-64
2020/12/10 10:46:08;;;;;;;22.48;13.30;;;5.20;99.60;;;;;;5087197;28;20213;-63
2020/12/10 10:48:35;;;;;;;23.17;13.43;;;5.20;99.60;;;;;;5086069;28;20201;-62
2020/12/10 10:51:01;;;;;;;23.25;12.30;;;5.20;99.90;;;;;;5086072;28;20659;-66
2020/12/10 10:53:27;;;;;;;21.98;13.32;;;5.30;99.50;;;;;;5087347;28;20217;-64
2020/12/10 10:55:54;;;;;;;24.20;12.93;;;5.30;99.40;;;;;;5084662;28;20730;-63
2020/12/10 10:58:20;;;;;;;22.52;12.82;;;5.30;99.30;;;;;;5086071;28;20201;-68
2020/12/10 11:00:47;;;;;;;25.35;13.73;;;5.40;99.20;;;;;;5084101;28;20228;-73
2020/12/10 11:03:14;;;;;;;25.27;13.95;;;5.40;99.20;;;;;;5086016;28;20224;-66
2020/12/10 11:05:40;;;;;;;24.10;13.73;;;5.40;99.10;;;;;;5084681;28;20667;-65
2020/12/10 11:08:06;;;;;;;21.73;13.07;;;5.50;99.10;;;;;;5085445;28;20209;-65
2020/12/10 11:10:33;;;;;;;24.33;13.45;;;5.40;99.00;;;;;;5084812;28;20667;-65
2020/12/10 11:13:00;;;;;;;21.65;12.57;;;5.40;99.00;;;;;;5085131;28;20213;-67
2020/12/10 11:15:27;;;;;;;21.70;12.88;;;5.50;99.00;;;;;;5086335;28;20311;-64
2020/12/10 11:17:54;;;;;;;21.67;12.38;;;5.50;98.90;;;;;;5083531;28;20260;-66
2020/12/10 11:20:20;;;;;;;21.83;12.38;;;5.50;98.80;;;;;;5084983;28;20205;-66
2020/12/10 11:22:46;;;;;;;22.30;12.52;;;5.60;98.80;;;;;;5086260;28;20206;-67
2020/12/10 11:25:13;;;;;;;21.02;12.40;;;5.60;98.80;;;;;;5087241;28;20251;-67
2020/12/10 11:27:39;;;;;;;23.85;13.38;;;5.60;98.70;;;;;;5085385;28;20198;-68
2020/12/10 11:30:06;;;;;;;22.02;13.18;;;5.70;98.70;;;;;;5084834;28;20225;-67
2020/12/10 11:32:32;;;;;;;22.25;13.73;;;5.80;98.60;;;;;;5085096;28;20619;-67
2020/12/10 11:34:59;;;;;;;22.30;12.73;;;5.90;98.60;;;;;;5085066;28;20248;-67
2020/12/10 11:37:25;;;;;;;22.23;12.90;;;6.10;98.50;;;;;;5084487;28;20233;-66
2020/12/10 11:39:54;;;;;;;24.85;13.45;;;6.30;98.40;;;;;;5086338;28;20209;-66
2020/12/10 11:42:20;;;;;;;22.30;13.30;;;6.40;98.20;;;;;;5082668;28;20206;-64
2020/12/10 11:44:48;;;;;;;20.35;13.25;;;6.60;98.10;;;;;;5086209;28;20334;-65
2020/12/10 11:47:14;;;;;;;23.55;13.55;;;6.70;98.30;;;;;;5081556;28;20660;-66
2020/12/10 11:49:41;;;;;;;23.88;12.55;;;6.70;97.60;;;;;;5085061;28;20621;-67
2020/12/10 11:52:08;;;;;;;22.45;13.63;;;6.60;97.50;;;;;;5082437;28;20201;-66
2020/12/10 11:54:34;;;;;;;24.35;14.65;;;6.60;97.60;;;;;;5085201;28;20221;-66
2020/12/10 11:57:00;;;;;;;22.63;13.77;;;6.70;97.80;;;;;;5084148;28;20728;-68
2020/12/10 11:59:27;;;;;;;22.08;13.80;;;6.90;97.90;;;;;;5085247;28;20214;-67
2020/12/10 12:01:53;;;;;;;22.17;13.65;;;6.90;97.80;;;;;;5084552;28;20197;-70
2020/12/10 12:04:19;;;;;;;23.45;14.23;;;7.00;97.60;;;;;;5083480;28;20202;-69
2020/12/10 12:06:46;;;;;;;21.55;13.32;;;7.00;97.40;;;;;;5083385;28;20233;-66
2020/12/10 12:09:13;;;;;;;20.70;13.00;;;7.10;97.20;;;;;;5084093;28;20206;-68
2020/12/10 12:11:39;;;;;;;22.42;13.27;;;7.10;96.90;;;;;;5081227;28;20206;-67
2020/12/10 12:14:06;;;;;;;23.00;13.93;;;7.10;96.70;;;;;;5083953;28;20294;-67
2020/12/10 12:16:32;;;;;;;24.48;14.25;;;7.10;96.60;;;;;;5082160;28;20616;-68
2020/12/10 12:18:58;;;;;;;22.35;13.73;;;7.30;96.90;;;;;;5085694;28;20209;-66
2020/12/10 12:21:27;;;;;;;22.50;13.88;;;7.60;97.10;;;;;;5082149;28;20210;-67
2020/12/10 12:23:53;;;;;;;22.20;13.93;;;7.80;96.90;;;;;;5085882;28;20198;-70
2020/12/10 12:26:28;;;;;;;20.83;14.18;;;8.00;96.80;;;;;;5080204;28;20266;-69
2020/12/10 12:28:55;;;;;;;23.13;14.50;;;8.30;96.70;;;;;;5083570;28;20374;-69
2020/12/10 12:31:27;;;;;;;20.25;13.35;;;8.50;96.30;;;;;;5082388;28;20292;-67
2020/12/10 12:33:53;;;;;;;22.10;14.20;;;8.70;96.20;;;;;;5084539;28;20228;-67
2020/12/10 12:36:20;;;;;;;20.20;13.32;;;9.10;96.20;;;;;;5083391;28;20205;-70
2020/12/10 12:38:46;;;;;;;21.15;13.77;;;9.50;95.60;;;;;;5081482;28;20749;-68